Time;durP1;ratioP1;P1;durP2;ratioP2;P2;SDS_P1;SDS_P2;PMS_P1;PMS_P2;Temp;Humidity;BMP_temperature;BMP_pressure;BME280_temperature;BME280_humidity;BME280_pressure;Samples;Min_cycle;Max_cycle;Signal;HPM_P1;HPM_P2
2022/12/15 00:39:42;;;;;;;;;;;-4.80;99.90;;;;;;5116814;27;19933;-65
2022/12/15 00:42:08;;;;;;;;;;;-4.80;99.90;;;;;;5117718;27;19923;-65
2022/12/15 00:44:34;;;;;;;;;;;-4.90;99.90;;;;;;5115676;27;19955;-65
2022/12/15 00:46:59;;;;;;;;;;;-4.80;99.90;;;;;;5116131;27;20278;-66
2022/12/15 01:22:30;;;;;;;;;;;-4.70;99.90;;;;;;5123822;27;20046;-66
2022/12/15 01:24:55;;;;;;;;;;;-4.70;99.90;;;;;;5122894;27;19923;-65
2022/12/15 01:27:21;;;;;;;;;;;-4.70;99.90;;;;;;5122961;27;19967;-66
2022/12/15 01:29:46;;;;;;;;;;;-4.70;99.90;;;;;;5119086;27;20013;-66
2022/12/15 01:32:12;;;;;;;;;;;-4.70;99.90;;;;;;5122443;27;19935;-66
2022/12/15 01:34:38;;;;;;;;;;;-4.60;99.90;;;;;;5119138;27;20018;-65
2022/12/15 01:37:03;;;;;;;;;;;-4.60;99.90;;;;;;5122365;27;20064;-66
2022/12/15 01:40:43;;;;;;;;;;;-4.60;99.90;;;;;;5122616;27;19958;-66
2022/12/15 01:42:14;;;;;;;;;;;-4.60;99.90;;;;;;5121256;27;20441;-66
2022/12/15 01:44:40;;;;;;;;;;;-4.50;99.90;;;;;;5123705;27;20055;-66
2022/12/15 01:47:08;;;;;;;;;;;-4.50;99.90;;;;;;5122051;27;19971;-66
2022/12/15 01:49:33;;;;;;;;;;;-4.50;99.90;;;;;;5115446;27;19920;-65
2022/12/15 01:52:00;;;;;;;;;;;-4.50;99.90;;;;;;5122215;27;20284;-65
2022/12/15 01:54:28;;;;;;;;;;;-4.50;99.90;;;;;;5119409;27;20030;-65
2022/12/15 01:56:56;;;;;;;;;;;-4.50;99.90;;;;;;5119573;27;20401;-65
2022/12/15 01:59:23;;;;;;;;;;;-4.50;99.90;;;;;;5122133;27;19920;-65
2022/12/15 02:01:49;;;;;;;;;;;-4.50;99.90;;;;;;5121667;27;19923;-65
2022/12/15 02:04:16;;;;;;;;;;;-4.50;99.90;;;;;;5116718;27;19919;-65
2022/12/15 02:06:42;;;;;;;;;;;-4.50;99.90;;;;;;5121851;27;19976;-66
2022/12/15 02:09:07;;;;;;;;;;;-4.50;99.90;;;;;;5122742;27;20351;-65
2022/12/15 02:11:55;;;;;;;;;;;-4.60;99.90;;;;;;5106018;27;19927;-65
2022/12/15 02:14:38;;;;;;;;;;;-4.50;99.90;;;;;;5120039;27;19923;-66
2022/12/15 02:17:16;;;;;;;;;;;-4.50;99.90;;;;;;5121734;27;20010;-65
2022/12/15 02:20:00;;;;;;;;;;;-4.60;99.90;;;;;;5119336;27;20013;-66
2022/12/15 02:22:38;;;;;;;;;;;-4.60;99.90;;;;;;5122301;27;19955;-65
2022/12/15 02:25:15;;;;;;;;;;;-4.50;99.90;;;;;;5118900;27;20698;-66
2022/12/15 02:27:56;;;;;;;;;;;-4.60;99.90;;;;;;5093142;27;19923;-66
2022/12/15 02:30:25;;;;;;;;;;;-4.60;99.90;;;;;;5120304;27;19960;-65
2022/12/15 02:32:57;;;;;;;;;;;-4.60;99.90;;;;;;5101633;27;19928;-66
2022/12/15 02:35:42;;;;;;;;;;;-4.60;99.90;;;;;;5119314;27;19966;-66
2022/12/15 02:38:07;;;;;;;;;;;-4.70;99.90;;;;;;5118969;27;19919;-66
2022/12/15 02:40:33;;;;;;;;;;;-4.60;99.90;;;;;;5120717;27;19923;-66
2022/12/15 02:42:59;;;;;;;;;;;-4.60;99.90;;;;;;5119340;27;19935;-65
2022/12/15 02:45:30;;;;;;;;;;;-4.60;99.90;;;;;;5116195;27;19919;-65
2022/12/15 02:47:59;;;;;;;;;;;-4.70;99.90;;;;;;5122357;27;20906;-65
2022/12/15 02:50:42;;;;;;;;;;;-4.70;99.90;;;;;;5121164;27;20350;-66
2022/12/15 02:53:14;;;;;;;;;;;-4.60;99.90;;;;;;5120596;27;19930;-66
2022/12/15 02:55:49;;;;;;;;;;;-4.70;99.90;;;;;;5104581;27;19955;-66
2022/12/15 02:58:20;;;;;;;;;;;-4.70;99.90;;;;;;5122234;27;19927;-66
2022/12/15 03:00:49;;;;;;;;;;;-4.70;99.90;;;;;;5115054;27;19935;-65
2022/12/15 03:03:19;;;;;;;;;;;-4.60;99.90;;;;;;5121324;27;20362;-66
2022/12/15 03:05:45;;;;;;;;;;;-4.70;99.90;;;;;;5120747;27;20366;-65
2022/12/15 03:08:11;;;;;;;;;;;-4.60;99.90;;;;;;5120321;27;20394;-66
2022/12/15 03:10:36;;;;;;;;;;;-4.60;99.90;;;;;;5102121;27;19923;-66
2022/12/15 03:13:02;;;;;;;;;;;-4.60;99.90;;;;;;5105446;27;20007;-66
2022/12/15 03:15:27;;;;;;;;;;;-4.60;99.90;;;;;;5120570;27;19963;-65
2022/12/15 03:17:53;;;;;;;;;;;-4.60;99.90;;;;;;5119404;27;20289;-66
2022/12/15 03:20:19;;;;;;;;;;;-4.60;99.90;;;;;;5118391;27;19931;-65
2022/12/15 03:22:45;;;;;;;;;;;-4.70;99.90;;;;;;5116086;27;19923;-65
2022/12/15 03:25:10;;;;;;;;;;;-4.70;99.90;;;;;;5117865;27;19931;-65
2022/12/15 03:27:36;;;;;;;;;;;-4.70;99.90;;;;;;5122078;27;19919;-66
2022/12/15 03:30:02;;;;;;;;;;;-4.60;99.90;;;;;;5119760;27;19959;-66
2022/12/15 03:32:28;;;;;;;;;;;-4.60;99.90;;;;;;5118356;27;20655;-65
2022/12/15 03:34:54;;;;;;;;;;;-4.70;99.90;;;;;;5119579;27;19956;-66
2022/12/15 03:37:19;;;;;;;;;;;-4.60;99.90;;;;;;5121889;27;20404;-66
2022/12/15 03:39:44;;;;;;;;;;;-4.50;99.90;;;;;;5093299;27;19924;-65
2022/12/15 03:42:10;;;;;;;;;;;-4.60;99.90;;;;;;5121982;27;20304;-66
2022/12/15 03:44:35;;;;;;;;;;;-4.60;99.90;;;;;;5119208;27;20112;-66
2022/12/15 03:47:01;;;;;;;;;;;-4.60;99.90;;;;;;5103439;27;20049;-68
2022/12/15 03:49:26;;;;;;;;;;;-4.60;99.90;;;;;;5118838;27;19934;-68
2022/12/15 03:51:52;;;;;;;;;;;-4.60;99.90;;;;;;5118445;27;20010;-68
2022/12/15 03:54:18;;;;;;;;;;;-4.60;99.90;;;;;;5120309;27;20026;-68
2022/12/15 03:56:43;;;;;;;;;;;-4.60;99.90;;;;;;5115115;27;19935;-68
2022/12/15 03:59:09;;;;;;;;;;;-4.60;99.90;;;;;;5120530;27;20010;-68
2022/12/15 04:01:35;;;;;;;;;;;-4.60;99.90;;;;;;5117066;27;19927;-68
2022/12/15 04:04:01;;;;;;;;;;;-4.50;99.90;;;;;;5119152;27;19959;-68
2022/12/15 04:06:27;;;;;;;;;;;-4.60;99.90;;;;;;5119673;27;19963;-68
2022/12/15 04:08:53;;;;;;;;;;;-4.60;99.90;;;;;;5119412;27;20331;-68
2022/12/15 04:11:18;;;;;;;;;;;-4.60;99.90;;;;;;5102207;27;19923;-68
2022/12/15 04:13:44;;;;;;;;;;;-4.60;99.90;;;;;;5120893;27;19927;-68
2022/12/15 04:16:09;;;;;;;;;;;-4.70;99.90;;;;;;5117471;27;19999;-68
2022/12/15 04:18:35;;;;;;;;;;;-4.70;99.90;;;;;;5120618;27;19931;-68
2022/12/15 04:21:00;;;;;;;;;;;-4.60;99.90;;;;;;5117323;27;19962;-68
2022/12/15 04:23:26;;;;;;;;;;;-4.60;99.90;;;;;;5102761;27;21090;-68
2022/12/15 05:31:51;;;;;;;;;;;-4.60;99.90;;;;;;5121270;27;20018;-68
2022/12/15 05:34:25;;;;;;;;;;;-4.60;99.90;;;;;;5120087;27;20647;-68
2022/12/15 05:36:51;;;;;;;;;;;-4.60;99.90;;;;;;5119412;27;20604;-68
2022/12/15 05:39:16;;;;;;;;;;;-4.60;99.90;;;;;;5122571;27;19919;-68
2022/12/15 05:41:42;;;;;;;;;;;-4.60;99.90;;;;;;5119519;27;19920;-68
2022/12/15 05:44:07;;;;;;;;;;;-4.70;99.90;;;;;;5124253;27;19927;-68
2022/12/15 05:46:33;;;;;;;;;;;-4.60;99.90;;;;;;5123649;27;19929;-68
2022/12/15 05:49:01;;;;;;;;;;;-4.70;99.90;;;;;;5125460;27;19992;-68
2022/12/15 05:51:26;;;;;;;;;;;-4.70;99.90;;;;;;5122120;27;19962;-68
2022/12/15 05:53:53;;;;;;;;;;;-4.60;99.90;;;;;;5124951;27;19966;-68
2022/12/15 05:56:18;;;;;;;;;;;-4.70;99.90;;;;;;5123396;27;19978;-68
2022/12/15 05:58:43;;;;;;;;;;;-4.60;99.90;;;;;;5124156;27;19975;-68
2022/12/15 06:01:10;;;;;;;;;;;-4.70;99.90;;;;;;5127107;27;19934;-68
2022/12/15 06:03:36;;;;;;;;;;;-4.70;99.90;;;;;;5119534;27;20374;-68
2022/12/15 06:06:02;;;;;;;;;;;-4.70;99.90;;;;;;5116288;27;19930;-69
2022/12/15 06:08:29;;;;;;;;;;;-4.70;99.90;;;;;;5123855;27;20038;-69
2022/12/15 06:10:55;;;;;;;;;;;-4.70;99.90;;;;;;5120287;27;19924;-69
2022/12/15 06:13:21;;;;;;;;;;;-4.70;99.90;;;;;;5119424;27;19938;-69
2022/12/15 06:16:16;;;;;;;;;;;-4.70;99.90;;;;;;5116461;27;20022;-69
2022/12/15 06:18:43;;;;;;;;;;;-4.70;99.90;;;;;;5082196;27;19977;-69
2022/12/15 06:21:10;;;;;;;;;;;-4.80;99.90;;;;;;5114175;27;19926;-69
2022/12/15 06:23:36;;;;;;;;;;;-4.80;99.90;;;;;;5121222;27;20314;-69
2022/12/15 06:26:08;;;;;;;;;;;-4.70;99.90;;;;;;5121372;27;19927;-68
2022/12/15 06:28:34;;;;;;;;;;;-4.70;99.90;;;;;;5120742;27;20031;-69
2022/12/15 06:31:01;;;;;;;;;;;-4.70;99.90;;;;;;5123687;27;20022;-69
2022/12/15 06:33:27;;;;;;;;;;;-4.70;99.90;;;;;;5123512;27;19966;-69
2022/12/15 06:35:53;;;;;;;;;;;-4.70;99.90;;;;;;5125644;27;19927;-69
2022/12/15 06:38:18;;;;;;;;;;;-4.70;99.90;;;;;;5127377;27;19919;-69
2022/12/15 06:40:44;;;;;;;;;;;-4.70;99.90;;;;;;5127697;27;20444;-69
2022/12/15 06:43:09;;;;;;;;;;;-4.70;99.90;;;;;;5128686;27;19948;-69
2022/12/15 06:45:35;;;;;;;;;;;-4.80;99.90;;;;;;5124935;27;19953;-69
2022/12/15 06:48:01;;;;;;;;;;;-4.70;99.90;;;;;;5122114;27;19924;-68
2022/12/15 06:50:26;;;;;;;;;;;-4.80;99.90;;;;;;5119481;27;20018;-69
2022/12/15 06:52:52;;;;;;;;;;;-4.70;99.90;;;;;;5122889;27;19930;-69
2022/12/15 06:55:17;;;;;;;;;;;-4.60;99.90;;;;;;5119053;27;20274;-69
2022/12/15 06:57:45;;;;;;;;;;;-4.50;99.90;;;;;;5127736;27;19920;-69
2022/12/15 07:00:11;;;;;;;;;;;-4.50;99.90;;;;;;5119652;27;19974;-69
2022/12/15 07:02:38;;;;;;;;;;;-4.50;99.90;;;;;;5118154;27;19996;-69
2022/12/15 07:05:04;;;;;;;;;;;-4.40;99.90;;;;;;5118246;27;20352;-69
2022/12/15 07:07:30;;;;;;;;;;;-4.40;99.90;;;;;;5121950;27;20006;-69
2022/12/15 07:09:55;;;;;;;;;;;-4.20;99.90;;;;;;5137744;27;20010;-69
2022/12/15 07:12:21;;;;;;;;;;;-4.20;99.90;;;;;;5122027;27;20146;-69
2022/12/15 07:14:48;;;;;;;;;;;-4.10;99.90;;;;;;5119534;27;19977;-69
2022/12/15 07:17:13;;;;;;;;;;;-3.90;99.90;;;;;;5124165;27;20281;-69
2022/12/15 07:19:39;;;;;;;;;;;-3.90;99.90;;;;;;5120571;27;19919;-69
2022/12/15 07:22:04;;;;;;;;;;;-3.90;99.90;;;;;;5125497;27;20224;-69
2022/12/15 07:24:30;;;;;;;;;;;-3.80;99.90;;;;;;5125797;27;19919;-69
2022/12/15 07:26:55;;;;;;;;;;;-3.70;99.90;;;;;;5128275;27;19923;-69
2022/12/15 07:29:20;;;;;;;;;;;-3.60;99.90;;;;;;5124720;27;19924;-69
2022/12/15 07:31:46;;;;;;;;;;;-3.60;99.90;;;;;;5124204;27;20354;-69
2022/12/15 07:34:12;;;;;;;;;;;-3.50;99.90;;;;;;5129584;27;19992;-69
2022/12/15 07:36:37;;;;;;;;;;;-3.40;99.90;;;;;;5128347;27;20392;-69
2022/12/15 07:39:03;;;;;;;;;;;-3.40;99.90;;;;;;5143512;27;20328;-69
2022/12/15 07:41:29;;;;;;;;;;;-3.50;99.90;;;;;;5128328;27;20366;-69
2022/12/15 07:43:55;;;;;;;;;;;-3.50;99.90;;;;;;5123563;27;19980;-69
2022/12/15 07:46:21;;;;;;;;;;;-3.40;99.90;;;;;;5127201;27;19927;-70
2022/12/15 07:48:46;;;;;;;;;;;-3.30;99.90;;;;;;5127564;27;19930;-69
2022/12/15 07:51:12;;;;;;;;;;;-3.20;99.90;;;;;;5123463;27;19934;-69
2022/12/15 07:53:37;;;;;;;;;;;-3.20;99.90;;;;;;5107258;28;19944;-69
2022/12/15 07:56:04;;;;;;;;;;;-3.30;99.90;;;;;;5115145;27;19980;-69
2022/12/15 07:58:30;;;;;;;;;;;-3.20;99.90;;;;;;5128011;27;19959;-69
2022/12/15 08:01:02;;;;;;;;;;;-3.10;99.90;;;;;;5122459;27;19955;-69
2022/12/15 08:03:28;;;;;;;;;;;-3.10;99.90;;;;;;5121380;27;19923;-69
2022/12/15 08:05:53;;;;;;;;;;;-3.20;99.90;;;;;;5123645;27;19926;-69
2022/12/15 08:08:19;;;;;;;;;;;-3.20;99.90;;;;;;5122463;27;20366;-69
2022/12/15 08:10:45;;;;;;;;;;;-3.10;99.90;;;;;;5119251;27;19928;-69
2022/12/15 08:13:11;;;;;;;;;;;-3.00;99.90;;;;;;5102316;27;19927;-69
2022/12/15 08:15:36;;;;;;;;;;;-3.00;99.90;;;;;;5122595;27;19923;-69
2022/12/15 08:18:03;;;;;;;;;;;-3.00;99.90;;;;;;5125345;27;19941;-69
2022/12/15 08:20:29;;;;;;;;;;;-2.90;99.90;;;;;;5122959;27;19923;-69
2022/12/15 08:22:55;;;;;;;;;;;-2.90;99.90;;;;;;5121930;27;19919;-69
2022/12/15 08:25:20;;;;;;;;;;;-2.90;99.90;;;;;;5125997;27;20006;-69
2022/12/15 08:27:48;;;;;;;;;;;-2.80;99.90;;;;;;5121854;27;19923;-68
2022/12/15 08:30:14;;;;;;;;;;;-2.90;99.90;;;;;;5128273;27;19927;-69
2022/12/15 08:32:40;;;;;;;;;;;-2.80;99.90;;;;;;5127791;27;20430;-69
2022/12/15 08:35:06;;;;;;;;;;;-2.90;99.90;;;;;;5127999;27;20333;-69
2022/12/15 08:37:33;;;;;;;;;;;-2.90;99.90;;;;;;5124217;27;20044;-69
2022/12/15 08:39:58;;;;;;;;;;;-2.90;99.90;;;;;;5129379;27;19930;-69
2022/12/15 08:42:24;;;;;;;;;;;-2.90;99.90;;;;;;5128636;27;19920;-69
2022/12/15 08:44:50;;;;;;;;;;;-2.90;99.90;;;;;;5126556;27;19962;-69
2022/12/15 08:47:15;;;;;;;;;;;-2.90;99.90;;;;;;5111361;27;19964;-69
2022/12/15 08:49:41;;;;;;;;;;;-2.80;99.90;;;;;;5127002;27;19924;-69
2022/12/15 08:52:06;;;;;;;;;;;-2.80;99.90;;;;;;5128033;27;19974;-69
2022/12/15 08:54:32;;;;;;;;;;;-2.60;99.90;;;;;;5129055;27;19919;-69
2022/12/15 08:56:57;;;;;;;;;;;-2.70;99.90;;;;;;5127323;27;19929;-69
2022/12/15 08:59:23;;;;;;;;;;;-2.60;99.90;;;;;;5128911;27;20404;-69
2022/12/15 09:01:48;;;;;;;;;;;-2.50;99.90;;;;;;5109523;27;19919;-69
2022/12/15 09:04:14;;;;;;;;;;;-2.40;99.90;;;;;;5129140;27;19980;-69
2022/12/15 09:06:40;;;;;;;;;;;-2.50;99.90;;;;;;5111824;27;19954;-69
2022/12/15 09:09:06;;;;;;;;;;;-2.40;99.90;;;;;;5125395;27;19927;-69
2022/12/15 09:11:32;;;;;;;;;;;-2.30;99.90;;;;;;5110514;27;19920;-69
2022/12/15 09:13:58;;;;;;;;;;;-2.30;99.90;;;;;;5127317;27;19931;-69
2022/12/15 09:16:23;;;;;;;;;;;-2.30;99.90;;;;;;5127209;27;20060;-69
2022/12/15 09:18:50;;;;;;;;;;;-2.20;99.90;;;;;;5129004;27;19926;-69
2022/12/15 09:21:16;;;;;;;;;;;-2.10;99.90;;;;;;5124430;27;19923;-69
2022/12/15 09:23:42;;;;;;;;;;;-1.90;99.90;;;;;;5126489;27;20483;-69
2022/12/15 09:26:08;;;;;;;;;;;-1.80;99.90;;;;;;5110263;27;20492;-69
2022/12/15 09:28:34;;;;;;;;;;;-1.70;99.90;;;;;;5129906;27;19927;-69
2022/12/15 09:31:02;;;;;;;;;;;-1.60;99.90;;;;;;5108723;27;19919;-69
2022/12/15 09:33:28;;;;;;;;;;;-1.50;99.90;;;;;;5126416;27;20389;-69
2022/12/15 09:35:53;;;;;;;;;;;-1.50;99.90;;;;;;5125665;27;19930;-69
2022/12/15 09:38:19;;;;;;;;;;;-1.30;99.90;;;;;;5127443;27;19923;-69
2022/12/15 09:40:44;;;;;;;;;;;-1.20;99.90;;;;;;5125095;27;19923;-69
2022/12/15 09:43:14;;;;;;;;;;;-1.10;99.90;;;;;;5127265;27;19942;-69
2022/12/15 09:45:43;;;;;;;;;;;-0.90;99.90;;;;;;5126269;27;20274;-69
2022/12/15 09:48:11;;;;;;;;;;;-0.90;99.90;;;;;;5128587;27;19919;-69
2022/12/15 09:50:37;;;;;;;;;;;-0.80;99.90;;;;;;5124253;27;19923;-67
2022/12/15 09:53:07;;;;;;;;;;;-0.70;99.90;;;;;;5124185;27;20068;-67
2022/12/15 09:55:33;;;;;;;;;;;-0.60;99.90;;;;;;5124306;27;21563;-67
2022/12/15 09:57:58;;;;;;;;;;;-0.60;99.90;;;;;;5126168;27;20400;-67
2022/12/15 10:00:28;;;;;;;;;;;-0.50;99.90;;;;;;5125652;27;19935;-67
2022/12/15 10:03:06;;;;;;;;;;;-0.50;99.90;;;;;;5125930;27;19926;-67
2022/12/15 10:05:35;;;;;;;;;;;-0.60;99.90;;;;;;5107138;27;19919;-67
2022/12/15 10:08:00;;;;;;;;;;;-0.50;99.90;;;;;;5127418;27;19919;-67
2022/12/15 10:10:26;;;;;;;;;;;-0.50;99.90;;;;;;5125438;27;19927;-67
2022/12/15 10:12:53;;;;;;;;;;;-0.30;99.90;;;;;;5127077;27;20034;-67
2022/12/15 10:15:23;;;;;;;;;;;-0.30;99.90;;;;;;5124638;27;20402;-67
2022/12/15 10:17:53;;;;;;;;;;;-0.20;99.90;;;;;;5123592;27;19923;-67
2022/12/15 10:20:21;;;;;;;;;;;-0.10;99.90;;;;;;5124438;27;20354;-67
2022/12/15 10:22:47;;;;;;;;;;;0.10;99.90;;;;;;5126825;27;19933;-67
2022/12/15 10:25:23;;;;;;;;;;;0.10;99.90;;;;;;5126602;27;19919;-68
2022/12/15 10:27:57;;;;;;;;;;;0.10;99.90;;;;;;5127797;27;20418;-67
2022/12/15 10:30:23;;;;;;;;;;;0.10;99.90;;;;;;5106610;27;20018;-67
2022/12/15 10:32:49;;;;;;;;;;;0.10;99.90;;;;;;5124538;27;20014;-68
2022/12/15 10:35:17;;;;;;;;;;;0.00;99.90;;;;;;5107040;27;20002;-67
2022/12/15 10:37:42;;;;;;;;;;;0.00;99.90;;;;;;5125369;27;19924;-67
2022/12/15 10:40:08;;;;;;;;;;;0.00;99.90;;;;;;5121705;27;19923;-67
2022/12/15 10:42:43;;;;;;;;;;;0.10;99.90;;;;;;5108486;27;19973;-67
2022/12/15 10:45:27;;;;;;;;;;;0.10;99.90;;;;;;5123764;27;19927;-67
2022/12/15 10:48:02;;;;;;;;;;;0.10;99.90;;;;;;5126557;27;20003;-67
2022/12/15 10:50:28;;;;;;;;;;;0.00;99.90;;;;;;5124005;27;19926;-66
2022/12/15 10:52:53;;;;;;;;;;;0.10;99.90;;;;;;5120275;27;20293;-67
2022/12/15 10:55:34;;;;;;;;;;;0.00;99.90;;;;;;5127432;27;19930;-67
2022/12/15 10:58:01;;;;;;;;;;;0.00;99.90;;;;;;5122225;27;20557;-66
2022/12/15 11:00:28;;;;;;;;;;;0.00;99.90;;;;;;5128819;27;19968;-67
2022/12/15 11:02:54;;;;;;;;;;;0.00;99.90;;;;;;5127461;27;19969;-67
2022/12/15 11:05:19;;;;;;;;;;;0.00;99.90;;;;;;5118959;27;19963;-67
2022/12/15 11:07:50;;;;;;;;;;;0.00;99.90;;;;;;5128015;27;19919;-67
2022/12/15 11:10:18;;;;;;;;;;;0.10;99.90;;;;;;5126039;27;20021;-66
2022/12/15 11:12:53;;;;;;;;;;;0.20;99.90;;;;;;5129410;27;19927;-66
2022/12/15 11:15:21;;;;;;;;;;;0.20;99.90;;;;;;5129038;27;19920;-66
2022/12/15 11:17:55;;;;;;;;;;;0.30;99.90;;;;;;5131304;27;20370;-66
2022/12/15 11:20:22;;;;;;;;;;;0.40;99.90;;;;;;5128770;27;19926;-67
2022/12/15 11:22:54;;;;;;;;;;;0.30;99.90;;;;;;5112840;27;19920;-66
2022/12/15 11:25:23;;;;;;;;;;;0.40;99.90;;;;;;5127328;27;20636;-66
2022/12/15 11:27:50;;;;;;;;;;;0.50;99.90;;;;;;5117331;27;19920;-66
2022/12/15 11:30:17;;;;;;;;;;;0.50;99.90;;;;;;5124300;27;19927;-66
2022/12/15 11:32:52;;;;;;;;;;;0.60;99.90;;;;;;5127904;27;19927;-66
2022/12/15 11:35:24;;;;;;;;;;;0.70;99.90;;;;;;5129721;27;19920;-66
2022/12/15 11:38:02;;;;;;;;;;;0.70;99.90;;;;;;5130680;27;19976;-66
2022/12/15 11:40:37;;;;;;;;;;;0.70;99.90;;;;;;5122513;27;19927;-66
2022/12/15 11:43:26;;;;;;;;;;;0.80;99.90;;;;;;5119599;27;19953;-67
2022/12/15 11:45:58;;;;;;;;;;;0.80;99.90;;;;;;5090138;27;19923;-67
2022/12/15 11:48:31;;;;;;;;;;;0.90;99.90;;;;;;5130609;27;20014;-67
2022/12/15 11:50:56;;;;;;;;;;;0.90;99.90;;;;;;5128704;27;19919;-66
2022/12/15 11:53:22;;;;;;;;;;;1.00;99.90;;;;;;5128364;27;19924;-67
2022/12/15 11:55:53;;;;;;;;;;;1.00;99.90;;;;;;5121084;27;20293;-67
2022/12/15 11:58:31;;;;;;;;;;;1.00;99.90;;;;;;5125780;27;19988;-67
2022/12/15 12:01:12;;;;;;;;;;;1.00;99.90;;;;;;5124479;27;19919;-66
2022/12/15 12:03:40;;;;;;;;;;;1.10;99.90;;;;;;5110618;28;20365;-67
2022/12/15 12:06:09;;;;;;;;;;;1.10;99.90;;;;;;5107464;28;20023;-66
2022/12/15 12:08:44;;;;;;;;;;;1.20;99.90;;;;;;5128591;28;19927;-66
2022/12/15 12:11:27;;;;;;;;;;;1.20;99.90;;;;;;5124428;27;19992;-66
2022/12/15 12:13:53;;;;;;;;;;;1.30;99.90;;;;;;5128789;27;19924;-66
2022/12/15 12:16:30;;;;;;;;;;;1.20;99.90;;;;;;5128030;28;19930;-66
2022/12/15 12:19:04;;;;;;;;;;;1.40;99.90;;;;;;5122088;27;19920;-66
2022/12/15 12:21:33;;;;;;;;;;;1.40;99.90;;;;;;5128919;28;19926;-68
2022/12/15 12:24:01;;;;;;;;;;;1.40;99.90;;;;;;5123318;28;20504;-69
2022/12/15 12:26:27;;;;;;;;;;;1.40;99.90;;;;;;5126385;28;19919;-68
2022/12/15 12:28:58;;;;;;;;;;;1.40;99.90;;;;;;5126247;27;19919;-68
2022/12/15 12:31:40;;;;;;;;;;;1.40;99.90;;;;;;5123652;28;19923;-67
2022/12/15 12:34:12;;;;;;;;;;;1.40;99.90;;;;;;5108893;28;19923;-66
2022/12/15 12:36:39;;;;;;;;;;;1.50;99.90;;;;;;5120525;27;19919;-67
2022/12/15 12:39:05;;;;;;;;;;;1.50;99.90;;;;;;5126201;27;20259;-66
2022/12/15 12:41:43;;;;;;;;;;;1.50;99.90;;;;;;5126353;27;19987;-66
2022/12/15 12:44:35;;;;;;;;;;;1.50;99.90;;;;;;5116191;27;20364;-67
2022/12/15 12:47:10;;;;;;;;;;;1.50;99.90;;;;;;5124671;27;19923;-66
2022/12/15 12:49:47;;;;;;;;;;;1.50;99.90;;;;;;5125837;27;20196;-66
2022/12/15 12:52:19;;;;;;;;;;;1.60;99.90;;;;;;5125347;28;20386;-67
2022/12/15 12:55:08;;;;;;;;;;;1.60;99.90;;;;;;5122772;28;20016;-66
2022/12/15 12:57:36;;;;;;;;;;;1.60;99.90;;;;;;5106267;28;19919;-66
2022/12/15 13:00:20;;;;;;;;;;;1.60;99.90;;;;;;5122298;28;19969;-66
2022/12/15 13:02:46;;;;;;;;;;;1.70;99.90;;;;;;5117871;27;20381;-66
2022/12/15 13:05:22;;;;;;;;;;;1.60;99.90;;;;;;5129022;28;19926;-66
2022/12/15 13:07:55;;;;;;;;;;;1.70;99.90;;;;;;5103542;28;19924;-65
2022/12/15 13:10:22;;;;;;;;;;;1.80;99.90;;;;;;5120067;27;19981;-65
2022/12/15 13:12:48;;;;;;;;;;;1.80;99.90;;;;;;5129284;27;20370;-65
2022/12/15 13:15:24;;;;;;;;;;;1.90;99.90;;;;;;5146484;27;19920;-65
2022/12/15 13:17:51;;;;;;;;;;;1.90;99.90;;;;;;5133229;27;19923;-65
2022/12/15 13:20:19;;;;;;;;;;;1.80;99.90;;;;;;5132214;27;20039;-65
2022/12/15 13:22:45;;;;;;;;;;;1.90;99.90;;;;;;5115550;27;20727;-65
2022/12/15 13:25:26;;;;;;;;;;;1.90;99.90;;;;;;5123376;27;19924;-65
2022/12/15 13:27:52;;;;;;;;;;;1.90;99.90;;;;;;5133844;27;19951;-66
2022/12/15 13:30:17;;;;;;;;;;;2.00;99.90;;;;;;5129940;27;19931;-65
2022/12/15 13:32:44;;;;;;;;;;;1.90;99.90;;;;;;5129684;27;19927;-66
2022/12/15 13:35:12;;;;;;;;;;;1.90;99.90;;;;;;5131401;27;19919;-65
2022/12/15 13:37:58;;;;;;;;;;;2.00;99.90;;;;;;5131058;27;19927;-65
2022/12/15 13:40:31;;;;;;;;;;;2.00;99.90;;;;;;5127285;27;20050;-65
2022/12/15 13:43:17;;;;;;;;;;;2.00;99.90;;;;;;5129673;27;20037;-65
2022/12/15 13:45:46;;;;;;;;;;;2.00;99.90;;;;;;5115803;27;19923;-65
2022/12/15 13:48:13;;;;;;;;;;;2.00;99.90;;;;;;5117633;27;19942;-64
2022/12/15 13:50:47;;;;;;;;;;;2.00;99.90;;;;;;5130463;27;20385;-64
2022/12/15 13:53:17;;;;;;;;;;;1.90;99.90;;;;;;5132345;27;20014;-64
2022/12/15 13:56:02;;;;;;;;;;;1.90;99.90;;;;;;5127744;27;20560;-64
2022/12/15 13:58:32;;;;;;;;;;;1.90;99.90;;;;;;5122219;27;20366;-64
2022/12/15 14:00:57;;;;;;;;;;;1.90;99.90;;;;;;5130315;27;19924;-64
2022/12/15 14:03:23;;;;;;;;;;;1.80;99.90;;;;;;5116971;27;20334;-63
2022/12/15 14:05:52;;;;;;;;;;;1.80;99.90;;;;;;5127419;27;19985;-64
2022/12/15 14:08:19;;;;;;;;;;;1.80;99.90;;;;;;5121585;27;19945;-63
2022/12/15 14:10:52;;;;;;;;;;;1.80;99.90;;;;;;5127604;27;19924;-63
2022/12/15 14:13:24;;;;;;;;;;;1.80;99.90;;;;;;5131017;27;20306;-63
2022/12/15 14:15:52;;;;;;;;;;;1.70;99.90;;;;;;5131220;27;19926;-63
2022/12/15 14:18:21;;;;;;;;;;;1.70;99.90;;;;;;5126328;27;19920;-63
2022/12/15 14:20:47;;;;;;;;;;;1.70;99.90;;;;;;5129128;27;19931;-63
2022/12/15 14:23:26;;;;;;;;;;;1.60;99.90;;;;;;5131601;27;19919;-63
2022/12/15 14:26:03;;;;;;;;;;;1.60;99.90;;;;;;5128791;27;19930;-63
2022/12/15 14:28:31;;;;;;;;;;;1.60;99.90;;;;;;5130371;27;19927;-63
2022/12/15 14:31:04;;;;;;;;;;;1.50;99.90;;;;;;5130894;27;19943;-63
2022/12/15 14:33:31;;;;;;;;;;;1.50;99.90;;;;;;5132509;27;20010;-63
2022/12/15 14:35:58;;;;;;;;;;;1.50;99.90;;;;;;5129969;27;20316;-63
2022/12/15 14:38:30;;;;;;;;;;;1.50;99.90;;;;;;5128562;27;19919;-63
2022/12/15 14:40:59;;;;;;;;;;;1.40;99.90;;;;;;5128189;27;19927;-62
2022/12/15 14:43:27;;;;;;;;;;;1.30;99.90;;;;;;5129649;27;19923;-62
2022/12/15 14:45:54;;;;;;;;;;;1.20;99.90;;;;;;5128902;27;19920;-63
2022/12/15 14:48:25;;;;;;;;;;;1.10;99.90;;;;;;5122841;27;19927;-63
2022/12/15 14:50:51;;;;;;;;;;;1.10;99.90;;;;;;5125285;27;20526;-62
2022/12/15 14:53:18;;;;;;;;;;;1.00;99.90;;;;;;5124914;27;20441;-63
2022/12/15 14:55:45;;;;;;;;;;;0.90;99.90;;;;;;5121848;27;19962;-62
2022/12/15 14:58:25;;;;;;;;;;;1.00;99.90;;;;;;5128976;27;19933;-62
2022/12/15 15:00:52;;;;;;;;;;;1.00;99.90;;;;;;5117768;27;20381;-62
2022/12/15 15:03:22;;;;;;;;;;;0.90;99.90;;;;;;5125095;27;19919;-62
2022/12/15 15:06:11;;;;;;;;;;;0.90;99.90;;;;;;5112898;27;19964;-62
2022/12/15 15:08:47;;;;;;;;;;;0.80;99.90;;;;;;5095962;27;19923;-62
2022/12/15 15:11:16;;;;;;;;;;;0.70;99.90;;;;;;5092284;27;19920;-62
2022/12/15 15:13:41;;;;;;;;;;;0.70;99.90;;;;;;5114162;27;19927;-63
2022/12/15 15:16:13;;;;;;;;;;;0.60;99.90;;;;;;5123340;27;19920;-63
2022/12/15 15:18:39;;;;;;;;;;;0.50;99.90;;;;;;5100748;27;19946;-62
2022/12/15 15:21:05;;;;;;;;;;;0.40;99.90;;;;;;5106338;27;19946;-62
2022/12/15 15:23:32;;;;;;;;;;;0.40;99.90;;;;;;5092890;27;20440;-62
2022/12/15 15:26:03;;;;;;;;;;;0.40;99.90;;;;;;5105072;27;19924;-62
2022/12/15 15:28:40;;;;;;;;;;;0.30;99.90;;;;;;5106396;28;19920;-62
2022/12/15 15:31:23;;;;;;;;;;;0.20;99.90;;;;;;5133587;27;19942;-62
2022/12/15 15:33:49;;;;;;;;;;;0.10;99.90;;;;;;5091539;28;20514;-62
2022/12/15 15:36:15;;;;;;;;;;;0.10;99.90;;;;;;5106354;27;19930;-62
2022/12/15 15:38:41;;;;;;;;;;;0.10;99.90;;;;;;5113841;27;19923;-62
2022/12/15 15:41:12;;;;;;;;;;;0.10;99.90;;;;;;5103356;27;19927;-62
2022/12/15 15:43:38;;;;;;;;;;;0.10;99.90;;;;;;5097732;28;19923;-63
2022/12/15 15:46:10;;;;;;;;;;;0.00;99.90;;;;;;5108385;27;19927;-63
2022/12/15 15:48:37;;;;;;;;;;;0.00;99.90;;;;;;5093477;28;19978;-63
2022/12/15 15:51:04;;;;;;;;;;;0.10;99.90;;;;;;5111520;27;19923;-62
2022/12/15 15:53:31;;;;;;;;;;;0.00;99.90;;;;;;5119604;27;19982;-62
2022/12/15 15:55:57;;;;;;;;;;;0.00;99.90;;;;;;5110354;27;19950;-63
2022/12/15 15:58:22;;;;;;;;;;;0.00;99.90;;;;;;5112435;27;19984;-62
2022/12/15 16:00:49;;;;;;;;;;;-0.10;99.90;;;;;;5124886;27;20429;-63
2022/12/15 16:03:15;;;;;;;;;;;-0.10;99.90;;;;;;5107559;28;20017;-64
2022/12/15 16:05:41;;;;;;;;;;;-0.20;99.90;;;;;;5128712;27;20389;-63
2022/12/15 16:08:08;;;;;;;;;;;-0.10;99.90;;;;;;5119280;28;20006;-63
2022/12/15 16:10:34;;;;;;;;;;;-0.30;99.90;;;;;;5127036;28;19934;-63
2022/12/15 16:13:00;;;;;;;;;;;-0.30;99.90;;;;;;5127956;28;20328;-63
2022/12/15 16:15:28;;;;;;;;;;;-0.30;99.90;;;;;;5127075;28;19924;-63
2022/12/15 16:17:53;;;;;;;;;;;-0.30;99.90;;;;;;5126107;27;19967;-63
2022/12/15 16:20:20;;;;;;;;;;;-0.40;99.90;;;;;;5126372;28;19966;-63
2022/12/15 16:22:47;;;;;;;;;;;-0.30;99.90;;;;;;5104625;28;19924;-63
2022/12/15 16:25:30;;;;;;;;;;;-0.40;99.90;;;;;;5121228;28;19982;-66
2022/12/15 16:27:56;;;;;;;;;;;-0.30;99.90;;;;;;5122540;28;19924;-66
2022/12/15 16:30:23;;;;;;;;;;;-0.30;99.90;;;;;;5124174;28;19924;-66
2022/12/15 16:32:49;;;;;;;;;;;-0.30;99.90;;;;;;5127713;28;19971;-66
2022/12/15 16:35:15;;;;;;;;;;;-0.30;99.90;;;;;;5130367;27;20370;-66
2022/12/15 16:37:45;;;;;;;;;;;-0.30;99.90;;;;;;5111884;28;20006;-63
2022/12/15 16:40:18;;;;;;;;;;;-0.20;99.90;;;;;;5128691;28;19964;-63
2022/12/15 16:42:47;;;;;;;;;;;-0.30;99.90;;;;;;5127364;27;19923;-63
2022/12/15 16:45:19;;;;;;;;;;;-0.30;99.90;;;;;;5126969;27;20404;-64
2022/12/15 16:47:44;;;;;;;;;;;-0.30;99.90;;;;;;5127972;27;19919;-64